Time;durP1;ratioP1;P1;durP2;ratioP2;P2;SDS_P1;SDS_P2;PMS_P1;PMS_P2;Temp;Humidity;BMP_temperature;BMP_pressure;BME280_temperature;BME280_humidity;BME280_pressure;Samples;Min_cycle;Max_cycle;Signal;HPM_P1;HPM_P2
2023/05/22 00:01:00;;;;;;;14.23;12.37;;;18.50;99.90;;;;;;4973453;28;20324;-61
2023/05/22 00:03:30;;;;;;;15.53;12.13;;;18.50;99.90;;;;;;4973751;28;20223;-61
2023/05/22 00:05:59;;;;;;;12.70;11.17;;;18.50;99.90;;;;;;4986502;28;20293;-62
2023/05/22 00:08:27;;;;;;;14.10;11.93;;;18.40;99.90;;;;;;4986559;28;20241;-62
2023/05/22 00:10:57;;;;;;;12.27;11.17;;;18.40;99.90;;;;;;4971742;28;20257;-61
2023/05/22 00:13:25;;;;;;;13.70;11.90;;;18.40;99.90;;;;;;4973078;28;20723;-61
2023/05/22 00:15:53;;;;;;;12.83;11.63;;;18.40;99.90;;;;;;4969880;28;20254;-62
2023/05/22 00:18:21;;;;;;;14.97;12.60;;;18.40;99.90;;;;;;4973702;28;20262;-61
2023/05/22 00:20:51;;;;;;;13.77;12.43;;;18.40;99.90;;;;;;4973412;28;20225;-62
2023/05/22 00:23:20;;;;;;;13.47;11.67;;;18.30;99.90;;;;;;4973693;28;20705;-61
2023/05/22 00:25:49;;;;;;;14.43;12.47;;;18.30;99.90;;;;;;4973578;28;20280;-61
2023/05/22 00:28:17;;;;;;;13.47;12.17;;;18.30;99.90;;;;;;4964408;28;20261;-61
2023/05/22 00:30:45;;;;;;;12.73;11.43;;;18.20;99.90;;;;;;4954745;28;20677;-62
2023/05/22 00:33:13;;;;;;;13.60;12.20;;;18.20;99.90;;;;;;4988466;28;20248;-62
2023/05/22 00:35:41;;;;;;;13.47;12.17;;;18.20;99.90;;;;;;4986208;28;20227;-62
2023/05/22 00:38:27;;;;;;;12.77;11.63;;;18.10;99.90;;;;;;4986809;28;20229;-62
2023/05/22 00:40:55;;;;;;;13.73;12.43;;;18.10;99.90;;;;;;4985471;28;20225;-61
2023/05/22 00:43:23;;;;;;;13.63;12.17;;;18.10;99.90;;;;;;4965688;28;20233;-62
2023/05/22 00:45:52;;;;;;;13.40;12.13;;;18.00;99.90;;;;;;4971389;28;20222;-62
2023/05/22 00:48:21;;;;;;;13.90;12.70;;;18.00;99.90;;;;;;4979642;28;20257;-62
2023/05/22 00:50:49;;;;;;;12.87;11.77;;;18.00;99.90;;;;;;4976746;28;20308;-61
2023/05/22 00:53:20;;;;;;;13.13;11.90;;;17.90;99.90;;;;;;4975122;28;20232;-62
2023/05/22 00:55:49;;;;;;;13.83;12.43;;;17.90;99.90;;;;;;4957594;28;20214;-60
2023/05/22 00:58:18;;;;;;;13.30;12.10;;;17.90;99.90;;;;;;4958585;28;20583;-62
2023/05/22 01:00:47;;;;;;;12.57;11.37;;;17.90;99.90;;;;;;4959550;28;20232;-61
2023/05/22 01:03:17;;;;;;;13.33;12.13;;;17.80;99.90;;;;;;4975613;28;20260;-62
2023/05/22 01:05:45;;;;;;;13.33;12.23;;;17.80;99.90;;;;;;4989456;28;20228;-62
2023/05/22 01:08:13;;;;;;;13.67;12.43;;;17.70;99.90;;;;;;4989618;28;20228;-61
2023/05/22 01:10:43;;;;;;;12.77;11.57;;;17.70;99.90;;;;;;4996129;28;20223;-61
2023/05/22 01:13:23;;;;;;;12.43;11.33;;;17.70;99.90;;;;;;4987348;28;20228;-61
2023/05/22 01:16:01;;;;;;;12.80;11.60;;;17.70;99.90;;;;;;4970907;28;20245;-62
2023/05/22 01:18:35;;;;;;;13.60;11.67;;;17.60;99.90;;;;;;4976346;28;20297;-61
2023/05/22 01:21:09;;;;;;;12.97;11.73;;;17.60;99.90;;;;;;4976418;28;20258;-61
2023/05/22 01:24:17;;;;;;;18.47;11.70;;;17.50;99.90;;;;;;4976402;28;20224;-62
2023/05/22 01:27:17;;;;;;;13.00;11.80;;;17.50;99.90;;;;;;4976305;28;20228;-62
2023/05/22 01:29:54;;;;;;;12.30;11.20;;;17.50;99.90;;;;;;4968277;28;20339;-62
2023/05/22 01:32:46;;;;;;;13.40;11.30;;;17.50;99.90;;;;;;4975851;28;20277;-62
2023/05/22 01:35:17;;;;;;;12.20;11.10;;;17.50;99.90;;;;;;4985788;28;20750;-61
2023/05/22 01:37:46;;;;;;;11.77;10.77;;;17.40;99.90;;;;;;4994091;28;20286;-61
2023/05/22 01:40:15;;;;;;;15.00;11.93;;;17.40;99.90;;;;;;4995697;28;20701;-62
2023/05/22 01:42:45;;;;;;;12.57;11.47;;;17.40;99.90;;;;;;4995463;28;20251;-62
2023/05/22 01:45:14;;;;;;;13.57;12.20;;;17.30;99.90;;;;;;4967183;28;20269;-60
2023/05/22 01:47:46;;;;;;;12.10;10.97;;;17.30;99.90;;;;;;4974521;28;20238;-62
2023/05/22 01:50:15;;;;;;;12.17;11.00;;;17.30;99.90;;;;;;4975720;28;20220;-62
2023/05/22 01:52:55;;;;;;;11.83;10.73;;;17.30;99.90;;;;;;4975721;28;20243;-62
2023/05/22 01:55:33;;;;;;;11.50;10.40;;;17.30;99.90;;;;;;4960758;28;20236;-62
2023/05/22 01:58:20;;;;;;;12.47;11.27;;;17.30;99.90;;;;;;4955087;29;20231;-62
2023/05/22 02:00:50;;;;;;;12.13;10.93;;;17.30;99.90;;;;;;4973416;28;20353;-62
2023/05/22 02:03:22;;;;;;;11.13;10.03;;;17.20;99.90;;;;;;4974356;28;20276;-62
2023/05/22 02:05:55;;;;;;;11.57;10.47;;;17.20;99.90;;;;;;4998500;28;20235;-62
2023/05/22 02:08:25;;;;;;;11.43;10.30;;;17.20;99.90;;;;;;4988601;28;20264;-62
2023/05/22 02:10:56;;;;;;;11.37;10.27;;;17.20;99.90;;;;;;4995115;28;20738;-62
2023/05/22 02:13:24;;;;;;;11.40;10.30;;;17.20;99.90;;;;;;4993590;28;20577;-61
2023/05/22 02:15:52;;;;;;;13.27;10.60;;;17.20;99.90;;;;;;4974648;28;20259;-61
2023/05/22 02:18:28;;;;;;;11.47;10.37;;;17.20;99.90;;;;;;4975235;28;20227;-62
2023/05/22 02:20:56;;;;;;;10.73;9.73;;;17.10;99.90;;;;;;4973978;28;20231;-61
2023/05/22 02:23:24;;;;;;;11.00;9.90;;;17.20;99.90;;;;;;4975419;28;20228;-61
2023/05/22 02:25:54;;;;;;;10.90;9.50;;;17.20;99.90;;;;;;4974064;28;20227;-61
2023/05/22 02:28:22;;;;;;;10.90;9.90;;;17.10;99.90;;;;;;4974027;28;20331;-62
2023/05/22 02:30:50;;;;;;;10.87;9.87;;;17.10;99.90;;;;;;4974224;28;20234;-61
2023/05/22 02:33:18;;;;;;;10.77;9.33;;;17.20;99.90;;;;;;4975172;28;20315;-62
2023/05/22 02:35:50;;;;;;;11.83;9.37;;;17.20;99.90;;;;;;4982941;28;20222;-61
2023/05/22 02:38:19;;;;;;;10.60;9.60;;;17.20;99.90;;;;;;4988675;28;20635;-61
2023/05/22 02:40:48;;;;;;;11.00;9.87;;;17.20;99.90;;;;;;4963767;28;20236;-62
2023/05/22 02:43:16;;;;;;;11.53;9.97;;;17.20;99.90;;;;;;4955809;28;20254;-62
2023/05/22 02:45:44;;;;;;;11.07;9.27;;;17.20;99.90;;;;;;4964876;28;20290;-62
2023/05/22 02:48:12;;;;;;;10.23;9.17;;;17.20;99.90;;;;;;4976128;28;20230;-62
2023/05/22 02:50:43;;;;;;;11.60;10.23;;;17.20;99.90;;;;;;4973257;28;20226;-61
2023/05/22 02:53:13;;;;;;;11.53;9.33;;;17.10;99.90;;;;;;4974766;28;20224;-62
2023/05/22 02:55:41;;;;;;;10.60;9.70;;;17.20;99.90;;;;;;4974708;28;20720;-62
2023/05/22 02:58:10;;;;;;;10.73;9.63;;;17.20;99.90;;;;;;4973276;28;20329;-62
2023/05/22 03:00:38;;;;;;;9.97;9.07;;;17.10;99.90;;;;;;4965032;28;20239;-62
2023/05/22 03:03:07;;;;;;;9.83;8.93;;;17.10;99.90;;;;;;4973378;28;20232;-62
2023/05/22 03:05:35;;;;;;;9.60;8.80;;;17.10;99.90;;;;;;4987027;28;20223;-62
2023/05/22 03:08:04;;;;;;;9.77;8.70;;;17.10;99.90;;;;;;4978267;28;20220;-62
2023/05/22 03:10:34;;;;;;;10.57;9.40;;;17.10;99.90;;;;;;4993895;28;20310;-62
2023/05/22 03:13:02;;;;;;;9.83;8.87;;;17.10;99.90;;;;;;4992621;28;20748;-62
2023/05/22 03:15:30;;;;;;;10.07;9.07;;;17.10;99.90;;;;;;4982286;28;20220;-61
2023/05/22 03:18:05;;;;;;;10.53;9.47;;;17.10;99.90;;;;;;4973146;28;20829;-61
2023/05/22 03:20:34;;;;;;;9.87;8.87;;;17.00;99.90;;;;;;4972809;28;20223;-61
2023/05/22 03:23:02;;;;;;;10.03;9.13;;;17.00;99.90;;;;;;4972951;28;20227;-62
2023/05/22 03:25:30;;;;;;;9.27;8.33;;;17.00;99.90;;;;;;4965680;28;20716;-61
2023/05/22 03:27:59;;;;;;;10.60;9.50;;;17.10;99.90;;;;;;4969764;28;20233;-61
2023/05/22 03:30:31;;;;;;;11.97;9.20;;;17.10;99.90;;;;;;4960367;28;20243;-61
2023/05/22 03:33:10;;;;;;;10.47;9.43;;;17.10;99.90;;;;;;4972879;28;20226;-61
2023/05/22 03:35:39;;;;;;;10.70;9.37;;;17.00;99.90;;;;;;5000823;28;20720;-61
2023/05/22 03:38:07;;;;;;;10.23;9.10;;;17.00;99.90;;;;;;4985959;28;20222;-61
2023/05/22 03:40:35;;;;;;;10.53;9.13;;;17.00;99.90;;;;;;4972282;28;20273;-61
2023/05/22 03:43:05;;;;;;;9.53;8.67;;;17.00;99.90;;;;;;4972318;28;20612;-62
2023/05/22 03:45:33;;;;;;;10.90;8.53;;;17.00;99.90;;;;;;4970501;28;20323;-63
2023/05/22 03:48:03;;;;;;;9.37;8.53;;;17.00;99.90;;;;;;4969640;28;20583;-62
2023/05/22 03:50:31;;;;;;;9.67;8.67;;;17.10;99.90;;;;;;4972171;28;20578;-61
2023/05/22 03:52:59;;;;;;;11.40;8.87;;;17.10;99.90;;;;;;4973541;28;20297;-61
2023/05/22 03:55:29;;;;;;;9.40;8.47;;;17.10;99.90;;;;;;4972459;28;20334;-62
2023/05/22 03:57:57;;;;;;;11.83;8.90;;;17.10;99.90;;;;;;4972354;28;20243;-62
2023/05/22 04:00:27;;;;;;;9.33;8.33;;;17.10;99.90;;;;;;4971433;28;20235;-61
2023/05/22 04:02:57;;;;;;;11.33;8.63;;;17.10;99.90;;;;;;4973915;28;20271;-62
2023/05/22 04:05:25;;;;;;;9.00;8.20;;;17.00;99.90;;;;;;4983517;28;20280;-60
2023/05/22 04:07:53;;;;;;;10.07;9.07;;;17.00;99.90;;;;;;4985051;28;20257;-62
2023/05/22 04:10:22;;;;;;;9.93;8.30;;;17.10;99.90;;;;;;4981960;28;20232;-62
2023/05/22 04:12:50;;;;;;;9.63;8.63;;;17.10;99.90;;;;;;4953608;28;20231;-62
2023/05/22 04:15:18;;;;;;;9.10;8.20;;;17.10;99.90;;;;;;4967194;28;20306;-62
2023/05/22 04:17:48;;;;;;;9.33;7.77;;;17.10;99.90;;;;;;4977362;28;20227;-61
2023/05/22 04:20:17;;;;;;;11.40;8.57;;;17.20;99.90;;;;;;4975848;28;20234;-62
2023/05/22 04:22:47;;;;;;;9.40;8.40;;;17.20;99.90;;;;;;4976246;28;20266;-61
2023/05/22 04:25:15;;;;;;;9.10;8.30;;;17.20;99.90;;;;;;4975956;28;20338;-61
2023/05/22 04:27:44;;;;;;;9.67;8.07;;;17.20;99.90;;;;;;4975659;28;20258;-61
2023/05/22 04:30:15;;;;;;;8.60;7.80;;;17.20;99.90;;;;;;4958333;28;20705;-61
2023/05/22 04:32:43;;;;;;;9.23;8.33;;;17.20;99.90;;;;;;4975019;28;20239;-62
2023/05/22 04:35:17;;;;;;;8.43;7.63;;;17.30;99.90;;;;;;4985299;28;20237;-61
2023/05/22 04:37:45;;;;;;;8.57;7.67;;;17.30;99.90;;;;;;4988482;28;20225;-61
2023/05/22 04:40:14;;;;;;;10.03;8.37;;;17.40;99.90;;;;;;4996836;28;20232;-62
2023/05/22 04:42:43;;;;;;;9.93;7.97;;;17.30;99.90;;;;;;4995274;28;20572;-61
2023/05/22 04:45:12;;;;;;;8.57;7.60;;;17.30;99.90;;;;;;4981752;28;20234;-61
2023/05/22 04:47:41;;;;;;;11.00;7.40;;;17.30;99.90;;;;;;4977813;28;20231;-61
2023/05/22 04:50:10;;;;;;;8.73;7.83;;;17.40;99.90;;;;;;4978674;28;20717;-61
2023/05/22 04:52:40;;;;;;;9.00;7.60;;;17.50;99.90;;;;;;4997293;28;20235;-61
2023/05/22 04:55:10;;;;;;;9.33;7.53;;;17.50;99.90;;;;;;4989280;28;20324;-62
2023/05/22 04:57:39;;;;;;;7.77;6.93;;;17.50;99.90;;;;;;4994976;28;20710;-61
2023/05/22 05:00:09;;;;;;;9.07;6.80;;;17.60;99.90;;;;;;4996780;28;20295;-61
2023/05/22 05:02:38;;;;;;;7.87;7.07;;;17.70;99.90;;;;;;4991679;28;20638;-61
2023/05/22 05:05:07;;;;;;;8.33;7.00;;;17.70;99.90;;;;;;4984189;28;20250;-62
2023/05/22 05:07:37;;;;;;;8.03;6.60;;;17.80;99.90;;;;;;4986670;28;20226;-60
2023/05/22 05:10:07;;;;;;;9.60;7.13;;;18.00;99.90;;;;;;5011306;28;20262;-62
2023/05/22 05:12:36;;;;;;;8.30;6.73;;;18.00;99.90;;;;;;4976117;28;20668;-62
2023/05/22 05:15:05;;;;;;;9.67;6.53;;;18.00;99.90;;;;;;4972372;28;20338;-61
2023/05/22 05:17:33;;;;;;;8.67;6.57;;;18.00;99.90;;;;;;4967526;28;20777;-62
2023/05/22 05:20:05;;;;;;;6.40;5.83;;;18.00;99.90;;;;;;4967821;28;20243;-62
2023/05/22 05:22:33;;;;;;;8.27;6.47;;;18.00;99.90;;;;;;4959839;28;20231;-64
2023/05/22 05:25:03;;;;;;;8.57;6.33;;;18.00;99.90;;;;;;4956119;28;20232;-61
2023/05/22 05:27:32;;;;;;;9.10;7.17;;;18.00;99.90;;;;;;4954790;28;20327;-61
2023/05/22 05:30:02;;;;;;;7.40;6.70;;;18.00;99.90;;;;;;4955911;28;20789;-61
2023/05/22 05:32:42;;;;;;;10.47;6.50;;;18.00;99.90;;;;;;4958764;28;20282;-61
2023/05/22 05:35:33;;;;;;;7.37;6.57;;;18.00;99.90;;;;;;4955584;28;20251;-59
2023/05/22 05:38:04;;;;;;;7.10;6.33;;;18.10;99.90;;;;;;4974103;28;20323;-57
2023/05/22 05:40:33;;;;;;;6.87;6.03;;;18.00;99.90;;;;;;4958403;28;20225;-61
2023/05/22 05:43:04;;;;;;;8.30;6.27;;;18.10;99.90;;;;;;4957557;28;20257;-61
2023/05/22 05:45:35;;;;;;;7.63;6.27;;;18.00;99.90;;;;;;4981765;28;20228;-59
2023/05/22 05:48:04;;;;;;;6.70;6.10;;;18.00;99.90;;;;;;4976498;28;20237;-61
2023/05/22 05:50:33;;;;;;;6.73;5.83;;;18.10;99.90;;;;;;4955463;28;20228;-60
2023/05/22 05:53:02;;;;;;;7.53;6.33;;;18.10;99.90;;;;;;4955441;28;20611;-61
2023/05/22 05:55:31;;;;;;;8.67;6.27;;;18.10;99.90;;;;;;4956744;28;20714;-61
2023/05/22 05:58:03;;;;;;;8.03;6.20;;;18.10;99.90;;;;;;4956989;28;20295;-61
2023/05/22 06:00:47;;;;;;;8.67;6.23;;;18.20;99.90;;;;;;4969131;28;20241;-59
2023/05/22 06:03:16;;;;;;;6.60;6.00;;;18.30;99.90;;;;;;4972508;28;20313;-60
2023/05/22 06:05:59;;;;;;;8.03;6.10;;;18.40;99.90;;;;;;4971160;28;20237;-61
2023/05/22 06:08:47;;;;;;;7.70;5.67;;;18.40;99.90;;;;;;4956895;28;20262;-60
2023/05/22 06:11:15;;;;;;;9.80;6.47;;;18.50;99.90;;;;;;4956869;28;21446;-59
2023/05/22 06:13:54;;;;;;;9.00;6.00;;;18.60;99.90;;;;;;4957430;28;20225;-58
2023/05/22 06:16:22;;;;;;;6.17;5.57;;;18.70;99.90;;;;;;4955149;28;20240;-59
2023/05/22 06:18:51;;;;;;;7.37;6.03;;;18.80;99.90;;;;;;4954269;28;20774;-61
2023/05/22 06:21:20;;;;;;;6.57;5.83;;;18.90;99.90;;;;;;4957674;28;20238;-61
2023/05/22 06:23:50;;;;;;;6.40;5.20;;;19.00;99.90;;;;;;4955226;28;20236;-61
2023/05/22 06:26:19;;;;;;;6.20;5.60;;;19.00;99.90;;;;;;4960024;28;20235;-60
2023/05/22 06:28:49;;;;;;;9.27;5.80;;;19.10;99.90;;;;;;4969585;28;20903;-60
2023/05/22 06:31:20;;;;;;;6.20;5.60;;;19.40;99.90;;;;;;4954397;28;20753;-60
2023/05/22 06:33:49;;;;;;;8.23;6.07;;;19.60;99.90;;;;;;4978938;28;21033;-58
2023/05/22 06:36:17;;;;;;;6.87;5.40;;;19.70;99.90;;;;;;4958628;28;20237;-60
2023/05/22 06:38:45;;;;;;;10.77;5.63;;;19.80;99.90;;;;;;4955975;28;20742;-60
2023/05/22 06:41:34;;;;;;;7.13;5.73;;;20.00;99.90;;;;;;4957887;28;20226;-61
2023/05/22 06:44:05;;;;;;;6.47;5.53;;;19.90;99.90;;;;;;4975628;28;20289;-61
2023/05/22 06:46:39;;;;;;;6.60;5.17;;;20.00;99.90;;;;;;4957314;28;20639;-59
2023/05/22 06:49:07;;;;;;;7.00;4.70;;;19.80;99.90;;;;;;4955967;28;21670;-61
2023/05/22 06:51:42;;;;;;;6.37;5.20;;;19.80;99.90;;;;;;4954911;28;20251;-58
2023/05/22 06:54:12;;;;;;;9.53;5.23;;;19.90;99.90;;;;;;4955525;28;20363;-61
2023/05/22 06:56:43;;;;;;;9.57;5.53;;;20.00;99.90;;;;;;4956930;28;20728;-60
2023/05/22 06:59:15;;;;;;;8.73;5.40;;;20.00;99.90;;;;;;4969743;28;20264;-61
2023/05/22 07:02:05;;;;;;;7.53;5.50;;;20.10;99.90;;;;;;4957162;28;20237;-61
2023/05/22 07:04:52;;;;;;;7.63;5.57;;;20.20;99.90;;;;;;4958291;28;20240;-60
2023/05/22 07:07:43;;;;;;;6.47;5.13;;;20.30;99.90;;;;;;4960157;28;20278;-60
2023/05/22 07:10:12;;;;;;;7.07;4.87;;;20.50;99.90;;;;;;4958293;28;20246;-58
2023/05/22 07:12:40;;;;;;;6.50;5.20;;;20.80;99.90;;;;;;4958594;28;20339;-61
2023/05/22 07:15:11;;;;;;;6.17;4.87;;;20.90;99.90;;;;;;4975214;28;20682;-61
2023/05/22 07:17:41;;;;;;;7.90;5.37;;;21.10;99.90;;;;;;4959444;28;20239;-61
2023/05/22 07:20:10;;;;;;;5.57;4.97;;;21.30;99.90;;;;;;4957734;28;20289;-61
2023/05/22 07:22:42;;;;;;;7.03;5.30;;;21.40;99.90;;;;;;4958651;28;20321;-60
2023/05/22 07:25:10;;;;;;;6.43;5.20;;;21.60;99.90;;;;;;4955478;28;20230;-61
2023/05/22 07:27:39;;;;;;;7.00;5.40;;;21.50;99.90;;;;;;4958342;28;20586;-61
2023/05/22 07:30:08;;;;;;;7.00;5.10;;;21.40;99.90;;;;;;4953894;28;20786;-61
2023/05/22 07:32:37;;;;;;;10.30;5.40;;;21.60;99.90;;;;;;4955965;28;20729;-60
2023/05/22 07:35:10;;;;;;;10.67;5.23;;;21.90;99.90;;;;;;4956265;28;20258;-60
2023/05/22 07:37:40;;;;;;;5.97;4.90;;;21.90;99.90;;;;;;4958378;28;20258;-61
2023/05/22 07:40:09;;;;;;;6.70;4.73;;;22.00;99.90;;;;;;4956049;28;20262;-61
2023/05/22 07:42:38;;;;;;;10.57;5.23;;;22.30;99.90;;;;;;4959140;28;20230;-61
2023/05/22 07:45:08;;;;;;;7.07;4.37;;;22.70;99.90;;;;;;4975350;28;20602;-61
2023/05/22 07:47:36;;;;;;;6.57;4.63;;;22.80;99.90;;;;;;4960038;28;20238;-61
2023/05/22 07:50:06;;;;;;;11.23;4.73;;;23.20;99.90;;;;;;4958320;28;20598;-60
2023/05/22 07:52:38;;;;;;;6.10;4.70;;;23.50;99.90;;;;;;4975402;28;20235;-60
2023/05/22 07:55:08;;;;;;;4.90;4.50;;;23.90;99.90;;;;;;4959222;28;20234;-58
2023/05/22 07:57:39;;;;;;;7.40;4.83;;;24.20;99.90;;;;;;4960721;28;20254;-61
2023/05/22 08:00:17;;;;;;;6.93;5.07;;;24.00;99.90;;;;;;4956405;28;20259;-61
2023/05/22 08:02:45;;;;;;;6.00;4.70;;;23.90;99.90;;;;;;4958333;28;20317;-58
2023/05/22 08:05:13;;;;;;;5.60;4.60;;;24.20;99.90;;;;;;4957279;28;20228;-61
2023/05/22 08:07:43;;;;;;;5.83;4.83;;;24.90;99.90;;;;;;4958219;28;20245;-61
2023/05/22 08:10:15;;;;;;;6.63;4.43;;;25.10;99.90;;;;;;4955608;28;20246;-62
2023/05/22 08:12:43;;;;;;;5.87;4.57;;;25.50;99.90;;;;;;4958865;28;20639;-60
2023/05/22 08:15:12;;;;;;;7.73;4.87;;;24.80;99.90;;;;;;4955091;28;20232;-61
2023/05/22 08:17:40;;;;;;;7.27;4.60;;;24.60;99.90;;;;;;4956305;28;20246;-61
2023/05/22 08:20:09;;;;;;;5.33;4.60;;;24.40;99.90;;;;;;4952865;28;20256;-62
2023/05/22 08:22:38;;;;;;;5.50;4.47;;;24.50;99.90;;;;;;4956588;28;20228;-61
2023/05/22 08:25:09;;;;;;;4.97;4.27;;;24.70;99.90;;;;;;4960498;28;20224;-61
2023/05/22 08:27:37;;;;;;;6.50;4.03;;;25.10;99.90;;;;;;4959962;28;20239;-59
2023/05/22 08:30:06;;;;;;;5.13;4.50;;;25.20;99.90;;;;;;4958241;28;20302;-60
2023/05/22 08:32:34;;;;;;;4.77;4.20;;;25.10;99.90;;;;;;4957018;28;20235;-62
2023/05/22 08:35:03;;;;;;;5.50;4.03;;;25.30;99.90;;;;;;4958975;28;20238;-61
2023/05/22 08:37:31;;;;;;;4.83;4.30;;;25.30;99.90;;;;;;4958001;28;20245;-62
2023/05/22 08:39:59;;;;;;;6.23;4.57;;;25.50;99.90;;;;;;4958660;28;20233;-61
2023/05/22 08:42:29;;;;;;;4.80;4.03;;;25.60;99.90;;;;;;4958314;28;20339;-58
2023/05/22 08:44:59;;;;;;;7.77;4.17;;;25.80;99.90;;;;;;4958183;28;20235;-61
2023/05/22 08:47:28;;;;;;;5.73;4.00;;;25.80;99.90;;;;;;4958235;28;20227;-61
2023/05/22 08:49:58;;;;;;;6.43;4.07;;;25.90;99.90;;;;;;4954364;28;20234;-57
2023/05/22 08:52:32;;;;;;;4.67;4.27;;;26.10;99.90;;;;;;4971261;28;20249;-61
2023/05/22 08:55:04;;;;;;;8.60;4.47;;;26.30;99.90;;;;;;4956634;28;20623;-61
2023/05/22 08:57:34;;;;;;;5.03;4.03;;;26.50;99.90;;;;;;4955989;28;20272;-62
2023/05/22 09:00:03;;;;;;;5.20;4.00;;;26.50;99.90;;;;;;4956167;28;20241;-62
2023/05/22 09:02:32;;;;;;;5.50;4.23;;;26.30;99.90;;;;;;4959985;28;20238;-62
2023/05/22 09:05:04;;;;;;;9.03;4.00;;;26.20;99.90;;;;;;4961302;28;20235;-61
2023/05/22 09:07:32;;;;;;;6.07;3.93;;;26.20;99.90;;;;;;4959417;28;20217;-62
2023/05/22 09:10:03;;;;;;;7.23;4.23;;;26.70;99.90;;;;;;4957187;28;20736;-61
2023/05/22 09:12:34;;;;;;;4.90;3.93;;;27.00;99.90;;;;;;4963277;28;20234;-61
2023/05/22 09:15:09;;;;;;;5.50;4.00;;;27.10;99.90;;;;;;4963717;28;20234;-61
2023/05/22 09:17:39;;;;;;;6.73;4.03;;;27.20;99.90;;;;;;4963957;28;20788;-58
2023/05/22 09:20:12;;;;;;;5.87;3.57;;;27.30;99.90;;;;;;4963461;28;20288;-61
2023/05/22 09:22:40;;;;;;;7.03;3.80;;;27.30;99.90;;;;;;4964428;28;20237;-61
2023/05/22 09:25:08;;;;;;;6.03;3.60;;;27.10;99.90;;;;;;4962471;28;20240;-61
2023/05/22 09:27:38;;;;;;;4.37;3.83;;;26.90;99.90;;;;;;4962533;28;20693;-61
2023/05/22 09:30:09;;;;;;;6.87;4.00;;;26.60;99.90;;;;;;4958556;28;20254;-56
2023/05/22 09:32:38;;;;;;;7.07;4.20;;;26.70;99.90;;;;;;4960428;28;20612;-60
2023/05/22 09:35:07;;;;;;;6.33;3.90;;;26.80;99.90;;;;;;4962546;28;20257;-60
2023/05/22 09:37:35;;;;;;;7.93;3.70;;;27.30;99.90;;;;;;4961697;28;20225;-56
2023/05/22 09:40:06;;;;;;;7.20;4.37;;;27.60;99.90;;;;;;4959917;28;20237;-61
2023/05/22 09:42:34;;;;;;;8.43;4.13;;;27.60;99.90;;;;;;4958082;28;20590;-62
2023/05/22 09:45:08;;;;;;;5.47;3.90;;;27.30;99.90;;;;;;4960389;28;20232;-61
2023/05/22 09:47:36;;;;;;;7.20;4.10;;;26.80;99.90;;;;;;4958050;28;20852;-60
2023/05/22 09:50:07;;;;;;;5.67;3.73;;;26.60;99.90;;;;;;4956537;28;20235;-58
2023/05/22 09:52:37;;;;;;;5.77;4.00;;;26.70;99.90;;;;;;4959095;28;20250;-61
2023/05/22 09:55:07;;;;;;;6.40;4.13;;;26.80;99.90;;;;;;4958839;28;20226;-58
2023/05/22 09:57:42;;;;;;;5.33;3.70;;;26.70;99.90;;;;;;4957262;28;20225;-61
2023/05/22 10:00:17;;;;;;;6.47;3.90;;;26.60;99.90;;;;;;4960711;28;20616;-61
2023/05/22 10:02:48;;;;;;;7.97;4.30;;;26.60;99.90;;;;;;4957866;28;20238;-61
2023/05/22 10:05:20;;;;;;;5.27;3.57;;;26.60;99.90;;;;;;4961262;28;20603;-61
2023/05/22 10:07:50;;;;;;;7.37;3.90;;;26.60;99.90;;;;;;4960687;28;20222;-61
2023/05/22 10:10:21;;;;;;;7.30;3.57;;;26.60;99.90;;;;;;4956054;28;20227;-61
2023/05/22 10:12:53;;;;;;;6.03;4.60;;;26.50;99.90;;;;;;4955535;28;21083;-59
2023/05/22 10:15:23;;;;;;;9.77;4.20;;;26.50;99.90;;;;;;4958856;28;20313;-61
2023/05/22 10:17:51;;;;;;;5.03;3.90;;;26.50;99.90;;;;;;4960261;28;20230;-61
2023/05/22 10:20:20;;;;;;;4.43;3.80;;;26.60;99.90;;;;;;4959054;28;20313;-60
2023/05/22 10:22:48;;;;;;;5.77;3.93;;;26.90;99.90;;;;;;4958105;28;20232;-61
2023/05/22 10:25:18;;;;;;;7.27;3.73;;;26.80;99.90;;;;;;4957288;28;20292;-61
2023/05/22 10:27:46;;;;;;;6.00;3.60;;;26.60;99.90;;;;;;4959421;28;20537;-58
2023/05/22 10:30:24;;;;;;;6.17;3.63;;;26.80;99.90;;;;;;4958012;28;20594;-60
2023/05/22 10:33:31;;;;;;;7.73;3.87;;;27.10;99.90;;;;;;4926191;28;20239;-61
2023/05/22 10:36:05;;;;;;;5.37;4.03;;;27.10;99.90;;;;;;4953753;28;20247;-58
2023/05/22 10:38:52;;;;;;;6.53;3.77;;;27.10;99.90;;;;;;4958106;28;20262;-61
2023/05/22 10:41:22;;;;;;;10.27;3.90;;;27.40;99.90;;;;;;4955590;28;20313;-58
2023/05/22 10:43:50;;;;;;;6.30;3.90;;;27.80;99.90;;;;;;4956821;28;20235;-60
2023/05/22 10:46:20;;;;;;;7.23;3.47;;;28.10;99.90;;;;;;4958950;28;20705;-61
2023/05/22 10:48:51;;;;;;;7.67;3.63;;;28.30;99.90;;;;;;4957685;28;20238;-60
2023/05/22 10:51:22;;;;;;;7.00;3.60;;;28.30;99.90;;;;;;4955295;28;20782;-58
2023/05/22 10:53:53;;;;;;;4.27;3.87;;;28.50;99.90;;;;;;4958611;28;20253;-58
2023/05/22 10:56:21;;;;;;;4.10;3.40;;;28.80;99.90;;;;;;4958218;28;20626;-58
2023/05/22 10:58:56;;;;;;;8.57;3.70;;;28.70;99.90;;;;;;4956871;28;20784;-57
2023/05/22 11:01:27;;;;;;;5.43;3.70;;;29.00;99.90;;;;;;4956930;28;20834;-59
2023/05/22 11:04:11;;;;;;;7.43;3.63;;;29.30;99.90;;;;;;4958427;28;20591;-60
2023/05/22 11:06:45;;;;;;;5.63;3.63;;;29.30;99.90;;;;;;4957900;28;20242;-61
2023/05/22 11:09:19;;;;;;;4.97;3.60;;;29.50;99.90;;;;;;4956452;28;20411;-60
2023/05/22 11:11:48;;;;;;;8.80;3.43;;;29.10;99.90;;;;;;4960463;28;20231;-60
2023/05/22 11:14:17;;;;;;;5.30;3.43;;;28.80;99.90;;;;;;4961376;28;20226;-61
2023/05/22 11:16:46;;;;;;;5.23;3.37;;;28.40;99.90;;;;;;4960715;28;20281;-61
2023/05/22 11:19:15;;;;;;;5.87;3.60;;;28.20;99.90;;;;;;4959370;28;20234;-61
2023/05/22 11:21:46;;;;;;;5.30;3.30;;;28.20;99.90;;;;;;4959118;28;20231;-58
2023/05/22 11:24:16;;;;;;;5.20;3.80;;;28.00;99.90;;;;;;4960749;28;20230;-60
2023/05/22 11:27:00;;;;;;;7.23;4.00;;;28.10;99.90;;;;;;4957889;28;20317;-61
2023/05/22 11:29:29;;;;;;;5.33;3.27;;;28.00;99.90;;;;;;4956322;28;20737;-61
2023/05/22 11:31:59;;;;;;;6.83;3.37;;;27.90;99.90;;;;;;4955850;28;20264;-60
2023/05/22 11:34:27;;;;;;;6.50;3.77;;;27.80;99.90;;;;;;4955813;28;20313;-61
2023/05/22 11:36:59;;;;;;;6.57;3.63;;;27.70;99.90;;;;;;4954879;28;20242;-60
2023/05/22 11:39:27;;;;;;;7.03;3.80;;;27.80;99.90;;;;;;4956045;28;20234;-61
2023/05/22 11:41:55;;;;;;;7.07;3.90;;;27.70;99.90;;;;;;4954972;28;20288;-61
2023/05/22 11:44:23;;;;;;;6.10;4.07;;;27.60;99.90;;;;;;4958194;28;20222;-61
2023/05/22 11:46:53;;;;;;;6.53;3.90;;;27.60;99.90;;;;;;4956981;28;20304;-59
2023/05/22 11:49:24;;;;;;;5.97;3.90;;;27.60;99.90;;;;;;4953405;28;20301;-59
2023/05/22 11:51:52;;;;;;;5.00;3.70;;;27.50;99.90;;;;;;4954854;28;20281;-60
2023/05/22 11:54:21;;;;;;;5.77;3.50;;;27.50;99.90;;;;;;4955955;28;20244;-59
2023/05/22 11:56:49;;;;;;;5.30;3.77;;;27.40;99.90;;;;;;4955669;28;20230;-60
2023/05/22 11:59:17;;;;;;;8.47;3.80;;;27.30;99.90;;;;;;4956361;28;20256;-60
2023/05/22 12:01:45;;;;;;;6.87;4.03;;;27.20;99.90;;;;;;4956497;28;20253;-61
2023/05/22 12:04:13;;;;;;;7.10;3.83;;;27.20;99.90;;;;;;4958386;28;20237;-58
2023/05/22 12:06:43;;;;;;;4.00;3.60;;;27.40;99.90;;;;;;4957211;28;20262;-61
2023/05/22 12:09:11;;;;;;;5.70;3.70;;;27.70;99.90;;;;;;4956759;28;20242;-60
2023/05/22 12:11:39;;;;;;;5.20;3.67;;;27.80;99.90;;;;;;4957196;28;20685;-61
2023/05/22 12:14:11;;;;;;;3.77;3.40;;;27.80;99.90;;;;;;4958326;28;20598;-61
2023/05/22 12:16:40;;;;;;;4.63;3.37;;;27.80;99.90;;;;;;4954793;28;20264;-58
2023/05/22 12:19:09;;;;;;;6.83;3.47;;;27.80;99.90;;;;;;4953363;28;20245;-59
2023/05/22 12:21:39;;;;;;;5.30;3.77;;;27.70;99.90;;;;;;4957890;28;20314;-61
2023/05/22 12:24:09;;;;;;;5.37;3.73;;;27.60;99.90;;;;;;4959450;28;20794;-61
2023/05/22 12:26:41;;;;;;;5.60;3.40;;;27.70;99.90;;;;;;4956953;28;20258;-58
2023/05/22 12:29:09;;;;;;;4.97;3.50;;;27.60;99.90;;;;;;4968255;28;20834;-61
2023/05/22 12:31:37;;;;;;;7.17;3.30;;;27.70;99.90;;;;;;4955460;28;20242;-57
2023/05/22 12:34:07;;;;;;;8.10;3.67;;;27.70;99.90;;;;;;4956300;28;20706;-61
2023/05/22 12:36:39;;;;;;;6.17;4.20;;;27.70;99.90;;;;;;4961564;28;20230;-57
2023/05/22 12:39:09;;;;;;;5.43;3.63;;;27.50;99.90;;;;;;4958858;28;20239;-60
2023/05/22 12:41:38;;;;;;;4.57;3.43;;;27.70;99.90;;;;;;4960687;28;20254;-60
2023/05/22 12:44:06;;;;;;;5.80;3.53;;;27.50;99.90;;;;;;4959196;28;20223;-59
2023/05/22 12:46:34;;;;;;;4.10;3.70;;;27.30;99.90;;;;;;4959157;28;20241;-61
2023/05/22 12:49:02;;;;;;;5.60;4.17;;;27.30;99.90;;;;;;4959544;28;20221;-61
2023/05/22 12:51:32;;;;;;;5.07;3.70;;;27.40;99.90;;;;;;4957858;28;21044;-60
2023/05/22 12:54:01;;;;;;;10.30;3.70;;;27.20;99.90;;;;;;4960082;28;20234;-61
2023/05/22 12:56:31;;;;;;;4.87;3.77;;;27.20;99.90;;;;;;4961002;28;20237;-58
2023/05/22 12:58:59;;;;;;;6.80;4.03;;;27.20;99.90;;;;;;4956583;28;20338;-56
2023/05/22 13:01:27;;;;;;;4.47;3.60;;;27.10;99.90;;;;;;4958658;28;20245;-58